Time;durP1;ratioP1;P1;durP2;ratioP2;P2;SDS_P1;SDS_P2;PMS_P1;PMS_P2;Temp;Humidity;BMP_temperature;BMP_pressure;BME280_temperature;BME280_humidity;BME280_pressure;Samples;Min_cycle;Max_cycle;Signal;HPM_P1;HPM_P2
2023/08/04 00:01:45;;;;;;;;;;;;;;;19.60;64.24;100903.63;4131923;28;19973;-56
2023/08/04 00:03:47;;;;;;;;;;;;;;;19.60;64.13;100908.97;4132187;28;19926;-57
2023/08/04 00:05:48;;;;;;;;;;;;;;;19.58;63.97;100905.59;4132349;28;19930;-57
2023/08/04 00:07:50;;;;;;;;;;;;;;;19.58;64.12;100906.44;4132044;28;19937;-58
2023/08/04 00:09:51;;;;;;;;;;;;;;;19.59;64.01;100913.47;4132001;28;19926;-58
2023/08/04 00:11:53;;;;;;;;;;;;;;;19.59;64.03;100907.28;4131462;28;19941;-57
2023/08/04 00:13:54;;;;;;;;;;;;;;;19.59;64.15;100909.97;4135454;28;19961;-57
2023/08/04 00:16:03;;;;;;;;;;;;;;;19.59;64.33;100913.47;4148364;28;20401;-56
2023/08/04 00:18:04;;;;;;;;;;;;;;;19.59;64.34;100912.63;4148431;28;20306;-58
2023/08/04 00:20:10;;;;;;;;;;;;;;;19.58;63.93;100914.44;4147945;28;19925;-58
2023/08/04 00:22:12;;;;;;;;;;;;;;;19.58;64.05;100913.59;4148081;28;20394;-57
2023/08/04 00:24:14;;;;;;;;;;;;;;;19.57;63.95;100912.72;4148078;28;19971;-57
2023/08/04 00:26:15;;;;;;;;;;;;;;;19.57;64.09;100910.06;4148619;28;19926;-57
2023/08/04 00:28:17;;;;;;;;;;;;;;;19.57;63.94;100906.53;4148296;28;20441;-58
2023/08/04 00:30:18;;;;;;;;;;;;;;;19.57;63.87;100920.72;4147829;28;19971;-57
2023/08/04 00:32:21;;;;;;;;;;;;;;;19.57;63.83;100923.38;4148222;28;19929;-58
2023/08/04 00:34:22;;;;;;;;;;;;;;;19.57;64.23;100922.56;4148324;28;20012;-57
2023/08/04 00:36:24;;;;;;;;;;;;;;;19.56;63.80;100910.16;4147553;28;19926;-57
2023/08/04 00:38:25;;;;;;;;;;;;;;;19.57;63.89;100911.88;4148209;28;20021;-57
2023/08/04 00:40:29;;;;;;;;;;;;;;;19.54;64.00;100910.28;4147642;28;20387;-57
2023/08/04 00:42:30;;;;;;;;;;;;;;;19.56;63.81;100920.84;4147822;28;20020;-57
2023/08/04 00:44:32;;;;;;;;;;;;;;;19.55;63.77;100927.13;4148289;28;19949;-57
2023/08/04 00:46:34;;;;;;;;;;;;;;;19.54;63.85;100920.09;4148181;28;19925;-57
2023/08/04 00:48:37;;;;;;;;;;;;;;;19.55;63.95;100921.78;4148250;28;19953;-57
2023/08/04 00:50:39;;;;;;;;;;;;;;;19.54;64.10;100922.75;4147067;28;20284;-57
2023/08/04 00:52:41;;;;;;;;;;;;;;;19.53;63.84;100924.59;4146689;28;19936;-58
2023/08/04 00:54:45;;;;;;;;;;;;;;;19.54;63.97;100933.41;4148200;28;19926;-58
2023/08/04 00:56:47;;;;;;;;;;;;;;;19.53;63.77;100929.06;4148267;28;20353;-58
2023/08/04 00:58:49;;;;;;;;;;;;;;;19.53;64.09;100926.41;4147990;28;19925;-57
2023/08/04 01:00:50;;;;;;;;;;;;;;;19.53;63.84;100923.75;4147185;28;20028;-58
2023/08/04 01:02:52;;;;;;;;;;;;;;;19.53;63.96;100921.06;4147889;28;20446;-57
2023/08/04 01:04:53;;;;;;;;;;;;;;;19.52;63.86;100928.19;4149482;28;19926;-57
2023/08/04 01:07:13;;;;;;;;;;;;;;;19.52;63.88;100928.19;4151088;28;19926;-57
2023/08/04 01:09:27;;;;;;;;;;;;;;;19.51;64.07;100929.16;4151281;28;19980;-57
2023/08/04 01:11:32;;;;;;;;;;;;;;;19.51;64.20;100929.16;4150579;28;19925;-57
2023/08/04 01:13:34;;;;;;;;;;;;;;;19.51;64.05;100929.16;4150924;28;19968;-57
2023/08/04 01:15:36;;;;;;;;;;;;;;;19.51;63.88;100931.81;4149863;28;19998;-57
2023/08/04 01:17:37;;;;;;;;;;;;;;;19.51;63.92;100931.81;4151163;28;19926;-58
2023/08/04 01:19:39;;;;;;;;;;;;;;;19.51;63.84;100931.00;4150803;28;19926;-57
2023/08/04 01:21:41;;;;;;;;;;;;;;;19.50;64.11;100929.28;4150397;28;19936;-57
2023/08/04 01:23:43;;;;;;;;;;;;;;;19.50;63.94;100931.94;4151173;28;19926;-57
2023/08/04 01:25:44;;;;;;;;;;;;;;;19.50;63.83;100930.13;4150885;28;20024;-57
2023/08/04 01:27:50;;;;;;;;;;;;;;;19.50;63.76;100924.78;4150907;28;19925;-57
2023/08/04 01:29:52;;;;;;;;;;;;;;;19.49;63.67;100925.78;4151007;28;19925;-57
2023/08/04 01:31:53;;;;;;;;;;;;;;;19.50;63.83;100929.28;4150131;28;19926;-56
2023/08/04 01:33:55;;;;;;;;;;;;;;;19.48;64.04;100932.91;4150555;28;19926;-57
2023/08/04 01:35:56;;;;;;;;;;;;;;;19.48;63.88;100930.22;4150704;28;19948;-57
2023/08/04 01:37:58;;;;;;;;;;;;;;;19.47;63.74;100925.84;4150796;28;19925;-57
2023/08/04 01:39:59;;;;;;;;;;;;;;;19.47;63.84;100927.69;4150675;28;20024;-57
2023/08/04 01:42:01;;;;;;;;;;;;;;;19.47;63.75;100933.00;4149946;28;19929;-56
2023/08/04 01:44:03;;;;;;;;;;;;;;;19.47;64.11;100930.34;4150609;28;19976;-58
2023/08/04 01:46:04;;;;;;;;;;;;;;;19.46;63.84;100934.81;4150721;28;19925;-57
2023/08/04 01:48:05;;;;;;;;;;;;;;;19.46;63.72;100936.63;4150160;28;19936;-58
2023/08/04 01:50:08;;;;;;;;;;;;;;;19.46;63.88;100940.16;4150600;28;19937;-58
2023/08/04 01:52:10;;;;;;;;;;;;;;;19.45;64.04;100943.78;4149708;28;20020;-58
2023/08/04 01:54:11;;;;;;;;;;;;;;;19.46;63.82;100940.16;4150555;28;20276;-58
2023/08/04 01:56:13;;;;;;;;;;;;;;;19.45;63.67;100943.78;4150641;28;19925;-58
2023/08/04 01:58:15;;;;;;;;;;;;;;;19.44;63.91;100947.41;4150371;28;19964;-58
2023/08/04 02:00:18;;;;;;;;;;;;;;;19.44;63.81;100952.75;4150502;28;20311;-59
2023/08/04 02:02:20;;;;;;;;;;;;;;;19.44;63.68;100955.44;4149593;28;19925;-58
2023/08/04 02:04:21;;;;;;;;;;;;;;;19.43;63.66;100944.84;4149986;28;19991;-58
2023/08/04 02:06:23;;;;;;;;;;;;;;;19.43;63.77;100959.03;4150375;28;20012;-58
2023/08/04 02:08:24;;;;;;;;;;;;;;;19.43;64.00;100952.84;4150277;28;19926;-58
2023/08/04 02:10:26;;;;;;;;;;;;;;;19.43;63.85;100952.84;4150069;28;20448;-58
2023/08/04 02:12:28;;;;;;;;;;;;;;;19.42;63.57;100952.00;4149853;28;19925;-58
2023/08/04 02:14:29;;;;;;;;;;;;;;;19.43;63.72;100955.50;4150163;28;19929;-58
2023/08/04 02:16:31;;;;;;;;;;;;;;;19.43;63.65;100952.84;4149283;28;19972;-58
2023/08/04 02:18:32;;;;;;;;;;;;;;;19.42;63.60;100953.81;4149837;28;20359;-58
2023/08/04 02:20:34;;;;;;;;;;;;;;;19.42;63.84;100956.50;4149666;28;19937;-58
2023/08/04 02:22:35;;;;;;;;;;;;;;;19.42;63.67;100953.81;4149932;28;19953;-58
2023/08/04 02:24:37;;;;;;;;;;;;;;;19.42;63.78;100956.50;4149993;28;20422;-58
2023/08/04 02:26:38;;;;;;;;;;;;;;;19.42;63.52;100956.50;4149861;28;19925;-58
2023/08/04 02:28:40;;;;;;;;;;;;;;;19.41;63.60;100962.78;4149845;28;19931;-58
2023/08/04 02:30:41;;;;;;;;;;;;;;;19.40;63.62;100956.56;4149247;28;19930;-58
2023/08/04 02:32:43;;;;;;;;;;;;;;;19.41;63.59;100960.13;4149297;28;20445;-58
2023/08/04 02:34:44;;;;;;;;;;;;;;;19.41;63.50;100954.78;4149670;28;19929;-58
2023/08/04 02:36:46;;;;;;;;;;;;;;;19.40;63.56;100961.06;4149832;28;19925;-58
2023/08/04 02:38:47;;;;;;;;;;;;;;;19.40;63.96;100961.91;4149901;28;20375;-58
2023/08/04 02:40:49;;;;;;;;;;;;;;;19.40;63.59;100966.41;4149442;28;19925;-58
2023/08/04 02:42:50;;;;;;;;;;;;;;;19.40;63.81;100963.75;4149652;28;20378;-59
2023/08/04 02:44:55;;;;;;;;;;;;;;;19.39;63.80;100957.53;4149466;28;19940;-58
2023/08/04 02:46:56;;;;;;;;;;;;;;;19.39;63.83;100960.19;4149322;28;19926;-58
2023/08/04 02:48:58;;;;;;;;;;;;;;;19.38;63.83;100958.53;4149717;28;20012;-58
2023/08/04 02:51:01;;;;;;;;;;;;;;;19.39;63.48;100959.34;4149105;28;20016;-57
2023/08/04 02:53:02;;;;;;;;;;;;;;;19.37;63.64;100967.47;4149393;28;19929;-57
2023/08/04 02:55:04;;;;;;;;;;;;;;;19.37;63.75;100971.94;4149732;28;19932;-57
2023/08/04 02:57:05;;;;;;;;;;;;;;;19.38;63.50;100973.66;4149488;28;19925;-57
2023/08/04 02:59:07;;;;;;;;;;;;;;;19.37;63.58;100970.13;4149504;28;19929;-56
2023/08/04 03:01:08;;;;;;;;;;;;;;;19.37;63.52;100964.81;4148734;28;20350;-57
2023/08/04 03:03:10;;;;;;;;;;;;;;;19.37;63.58;100970.13;4149452;28;20402;-58
2023/08/04 03:05:12;;;;;;;;;;;;;;;19.37;63.49;100980.81;4149385;28;19925;-58
2023/08/04 03:07:13;;;;;;;;;;;;;;;19.36;63.78;100976.44;4149385;28;19969;-57
2023/08/04 03:09:15;;;;;;;;;;;;;;;19.37;63.47;100979.94;4149379;28;19925;-57
2023/08/04 03:11:16;;;;;;;;;;;;;;;19.35;63.88;100973.88;4148454;28;19932;-58
2023/08/04 03:13:18;;;;;;;;;;;;;;;19.36;63.76;100981.75;4149127;28;20362;-58
2023/08/04 03:15:19;;;;;;;;;;;;;;;19.36;63.74;100984.44;4148905;28;19956;-58
2023/08/04 03:17:21;;;;;;;;;;;;;;;19.35;63.67;100984.53;4149230;28;19926;-57
2023/08/04 03:19:23;;;;;;;;;;;;;;;19.35;63.96;100981.88;4149368;28;20036;-58
2023/08/04 03:21:24;;;;;;;;;;;;;;;19.35;63.75;100981.88;4148529;28;19925;-58
2023/08/04 03:23:26;;;;;;;;;;;;;;;19.36;63.92;100986.25;4147875;28;20298;-58
2023/08/04 03:25:27;;;;;;;;;;;;;;;19.35;63.52;100989.88;4149207;28;19994;-57
2023/08/04 03:27:29;;;;;;;;;;;;;;;19.34;63.77;100991.66;4148888;28;19925;-58
2023/08/04 03:29:30;;;;;;;;;;;;;;;19.34;63.51;100991.66;4148658;28;19952;-58
2023/08/04 03:31:32;;;;;;;;;;;;;;;19.34;63.46;100990.84;4148501;28;20011;-57
2023/08/04 03:33:35;;;;;;;;;;;;;;;19.34;63.72;100996.16;4148703;28;19925;-57
2023/08/04 03:35:37;;;;;;;;;;;;;;;19.33;63.48;100992.63;4149025;28;20015;-58
2023/08/04 03:37:38;;;;;;;;;;;;;;;19.33;63.87;100999.78;4148991;28;20276;-58
2023/08/04 03:39:40;;;;;;;;;;;;;;;19.34;63.52;101004.16;4148863;28;19925;-57
2023/08/04 03:41:41;;;;;;;;;;;;;;;19.33;63.58;101007.78;4148236;28;19925;-58
2023/08/04 03:43:43;;;;;;;;;;;;;;;19.33;63.48;101005.97;4149246;28;19983;-58
2023/08/04 03:45:44;;;;;;;;;;;;;;;19.33;63.87;101007.78;4148616;28;19931;-58
2023/08/04 03:47:46;;;;;;;;;;;;;;;19.33;63.53;101010.47;4148802;28;19957;-59
2023/08/04 03:49:48;;;;;;;;;;;;;;;19.32;63.33;101012.28;4148710;28;19929;-58
2023/08/04 03:51:49;;;;;;;;;;;;;;;19.22;63.47;100992.50;4147949;28;19971;-58
2023/08/04 03:53:51;;;;;;;;;;;;;;;19.31;63.50;101013.22;4148698;28;19933;-57
2023/08/04 03:55:53;;;;;;;;;;;;;;;19.30;63.25;101020.38;4148647;28;19925;-59
2023/08/04 03:57:54;;;;;;;;;;;;;;;19.30;63.69;101017.69;4148505;28;20016;-58
2023/08/04 03:59:56;;;;;;;;;;;;;;;19.30;63.37;101019.53;4148248;28;19932;-58
2023/08/04 04:01:57;;;;;;;;;;;;;;;19.29;63.48;101015.97;4147846;28;20012;-59
2023/08/04 04:03:59;;;;;;;;;;;;;;;19.29;63.58;101023.97;4148744;28;19965;-58
2023/08/04 04:06:00;;;;;;;;;;;;;;;19.29;63.46;101026.66;4148736;28;20028;-58
2023/08/04 04:08:02;;;;;;;;;;;;;;;19.28;63.57;101027.63;4147307;28;19972;-57
2023/08/04 04:10:04;;;;;;;;;;;;;;;19.29;63.68;101037.31;4148422;28;19936;-58
2023/08/04 04:12:05;;;;;;;;;;;;;;;19.29;63.47;101033.81;4147901;28;19932;-58
2023/08/04 04:14:09;;;;;;;;;;;;;;;19.29;63.78;101033.81;4147861;28;20030;-58
2023/08/04 04:16:11;;;;;;;;;;;;;;;19.29;63.57;101037.31;4148560;28;19965;-60
2023/08/04 04:18:12;;;;;;;;;;;;;;;19.29;63.41;101031.97;4148504;28;19926;-58
2023/08/04 04:20:14;;;;;;;;;;;;;;;19.29;63.49;101036.47;4148422;28;20112;-58
2023/08/04 04:22:16;;;;;;;;;;;;;;;19.28;63.38;101038.31;4147808;28;20398;-57
2023/08/04 04:24:17;;;;;;;;;;;;;;;19.30;63.40;101046.19;4148182;28;19960;-58
2023/08/04 04:26:19;;;;;;;;;;;;;;;19.29;63.33;101045.31;4148380;28;19926;-58
2023/08/04 04:28:20;;;;;;;;;;;;;;;19.28;63.36;101045.44;4147667;28;19929;-58
2023/08/04 04:30:22;;;;;;;;;;;;;;;19.28;63.66;101045.44;4148319;28;19925;-58
2023/08/04 04:32:23;;;;;;;;;;;;;;;19.27;63.46;101044.59;4146514;28;19952;-58
2023/08/04 04:34:25;;;;;;;;;;;;;;;19.27;63.61;101047.25;4148075;28;19926;-58
2023/08/04 04:36:26;;;;;;;;;;;;;;;19.27;63.77;101049.06;4148152;28;19953;-57
2023/08/04 04:38:28;;;;;;;;;;;;;;;19.27;63.69;101047.25;4148127;28;19926;-57
2023/08/04 04:40:30;;;;;;;;;;;;;;;19.27;63.37;101049.06;4147547;28;19930;-57
2023/08/04 04:42:32;;;;;;;;;;;;;;;19.27;63.71;101051.72;4147234;28;20406;-57
2023/08/04 04:44:33;;;;;;;;;;;;;;;19.26;63.47;101050.00;4148201;28;20290;-57
2023/08/04 04:46:35;;;;;;;;;;;;;;;19.27;63.65;101054.38;4148010;28;19925;-57
2023/08/04 04:48:37;;;;;;;;;;;;;;;19.26;63.70;101061.53;4147970;28;20028;-57
2023/08/04 04:50:39;;;;;;;;;;;;;;;19.26;63.49;101061.53;4147997;28;19925;-57
2023/08/04 04:52:41;;;;;;;;;;;;;;;19.26;63.33;101058.88;4147167;28;20351;-57
2023/08/04 04:54:42;;;;;;;;;;;;;;;19.26;63.52;101060.66;4148067;28;20365;-57
2023/08/04 04:56:45;;;;;;;;;;;;;;;19.25;63.55;101054.50;4147626;28;19936;-57
2023/08/04 04:58:46;;;;;;;;;;;;;;;19.26;63.34;101063.34;4147938;28;19925;-57
2023/08/04 05:00:48;;;;;;;;;;;;;;;19.26;63.41;101063.34;4147952;28;19925;-57
2023/08/04 05:02:50;;;;;;;;;;;;;;;19.26;63.67;101066.00;4146232;28;19977;-58
2023/08/04 05:04:52;;;;;;;;;;;;;;;19.26;63.41;101060.66;4147898;28;19926;-57
2023/08/04 05:06:53;;;;;;;;;;;;;;;19.25;63.41;101067.81;4148085;28;19930;-57
2023/08/04 05:08:55;;;;;;;;;;;;;;;19.25;63.77;101070.50;4148007;28;20310;-57
2023/08/04 05:10:56;;;;;;;;;;;;;;;19.25;63.67;101075.81;4147893;28;19925;-57
2023/08/04 05:12:58;;;;;;;;;;;;;;;19.25;63.46;101074.97;4145726;28;20025;-56
2023/08/04 05:14:59;;;;;;;;;;;;;;;19.25;63.50;101073.16;4147785;28;19930;-57
2023/08/04 05:17:01;;;;;;;;;;;;;;;19.26;63.70;101076.66;4147866;28;19926;-57
2023/08/04 05:19:02;;;;;;;;;;;;;;;19.24;63.57;101074.13;4147751;28;19925;-57
2023/08/04 05:21:04;;;;;;;;;;;;;;;19.24;63.32;101082.13;4147562;28;19934;-56
2023/08/04 05:23:05;;;;;;;;;;;;;;;19.16;63.20;101063.09;4147179;28;19975;-57
2023/08/04 05:25:07;;;;;;;;;;;;;;;19.24;63.66;101078.59;4147896;28;19961;-57
2023/08/04 05:27:12;;;;;;;;;;;;;;;19.24;63.38;101079.44;4147433;28;19925;-57
2023/08/04 05:29:13;;;;;;;;;;;;;;;19.24;63.42;101087.44;4147699;28;19925;-57
2023/08/04 05:31:15;;;;;;;;;;;;;;;19.25;63.51;101085.66;4147457;28;20298;-57
2023/08/04 05:33:17;;;;;;;;;;;;;;;19.24;63.67;101089.28;4147779;28;20019;-57
2023/08/04 05:35:19;;;;;;;;;;;;;;;19.24;63.53;101091.94;4147437;28;19932;-58
2023/08/04 05:37:20;;;;;;;;;;;;;;;19.24;63.47;101086.59;4147701;28;20315;-57
2023/08/04 05:39:22;;;;;;;;;;;;;;;19.24;63.59;101089.28;4147700;28;19926;-57
2023/08/04 05:41:23;;;;;;;;;;;;;;;19.23;63.52;101088.41;4146698;28;19961;-57
2023/08/04 05:43:25;;;;;;;;;;;;;;;19.22;63.48;101086.69;4147456;28;19929;-57
2023/08/04 05:45:27;;;;;;;;;;;;;;;19.24;63.53;101091.94;4147594;28;19925;-57
2023/08/04 05:47:28;;;;;;;;;;;;;;;19.23;63.32;101093.72;4147707;28;19940;-57
2023/08/04 05:49:33;;;;;;;;;;;;;;;19.22;63.45;101094.69;4146512;28;20444;-57
2023/08/04 05:51:34;;;;;;;;;;;;;;;19.23;63.40;101108.88;4147902;28;20021;-57
2023/08/04 05:53:37;;;;;;;;;;;;;;;19.22;63.21;101097.34;4150424;28;19926;-58
2023/08/04 05:55:38;;;;;;;;;;;;;;;19.24;63.60;101107.94;4150221;28;20438;-58
2023/08/04 05:57:40;;;;;;;;;;;;;;;19.23;63.75;101108.88;4150659;28;20000;-57
2023/08/04 05:59:41;;;;;;;;;;;;;;;19.22;63.49;101113.34;4150318;28;19948;-58
2023/08/04 06:01:43;;;;;;;;;;;;;;;19.23;63.45;101108.88;4149653;28;19926;-57
2023/08/04 06:03:45;;;;;;;;;;;;;;;19.24;63.65;101113.28;4150065;28;19929;-57
2023/08/04 06:05:47;;;;;;;;;;;;;;;19.24;63.59;101115.94;4150338;28;19926;-57
2023/08/04 06:07:48;;;;;;;;;;;;;;;19.24;63.39;101121.28;4150409;28;19926;-58
2023/08/04 06:09:50;;;;;;;;;;;;;;;19.23;63.38;101123.06;4149604;28;19933;-57
2023/08/04 06:11:52;;;;;;;;;;;;;;;19.23;63.20;101117.72;4149747;28;19957;-57
2023/08/04 06:13:54;;;;;;;;;;;;;;;19.23;63.21;101119.56;4150089;28;20008;-58
2023/08/04 06:15:55;;;;;;;;;;;;;;;19.23;63.42;101131.06;4150279;28;19926;-60
2023/08/04 06:17:57;;;;;;;;;;;;;;;19.23;63.52;101131.06;4150221;28;19931;-57
2023/08/04 06:19:59;;;;;;;;;;;;;;;19.23;63.48;101133.72;4150132;28;20387;-57
2023/08/04 06:22:00;;;;;;;;;;;;;;;19.24;63.46;101139.94;4149391;28;19933;-58
2023/08/04 06:24:03;;;;;;;;;;;;;;;19.24;63.51;101146.09;4149717;28;19980;-58
2023/08/04 06:26:04;;;;;;;;;;;;;;;19.24;63.36;101145.28;4150172;28;20709;-57
2023/08/04 06:28:06;;;;;;;;;;;;;;;19.25;63.44;101141.66;4150004;28;19968;-57
2023/08/04 06:30:07;;;;;;;;;;;;;;;19.24;63.55;101146.09;4149733;28;19926;-57
2023/08/04 06:32:09;;;;;;;;;;;;;;;19.25;63.34;101145.16;4149169;28;20414;-57
2023/08/04 06:34:11;;;;;;;;;;;;;;;19.24;63.54;101148.78;4149850;28;19932;-57
2023/08/04 06:36:12;;;;;;;;;;;;;;;19.24;63.24;101148.78;4149856;28;19948;-57
2023/08/04 06:38:14;;;;;;;;;;;;;;;19.25;63.30;101149.66;4149473;28;19933;-57
2023/08/04 06:40:15;;;;;;;;;;;;;;;19.25;63.36;101149.66;4149975;28;20367;-57
2023/08/04 06:42:17;;;;;;;;;;;;;;;19.25;63.45;101154.97;4148939;28;19926;-57
2023/08/04 06:44:19;;;;;;;;;;;;;;;19.24;63.61;101148.78;4149816;28;19968;-57
2023/08/04 06:46:20;;;;;;;;;;;;;;;19.25;63.52;101155.81;4149766;28;19956;-59
2023/08/04 06:48:24;;;;;;;;;;;;;;;19.26;63.41;101156.66;4149694;28;20005;-57
2023/08/04 06:50:26;;;;;;;;;;;;;;;19.26;63.25;101157.53;4149583;28;19929;-58
2023/08/04 06:52:27;;;;;;;;;;;;;;;19.27;63.25;101161.06;4148868;28;19929;-57
2023/08/04 06:54:29;;;;;;;;;;;;;;;19.27;63.56;101161.06;4148929;28;19925;-57
2023/08/04 06:56:30;;;;;;;;;;;;;;;19.27;63.26;101158.38;4149501;28;19925;-59
2023/08/04 06:58:32;;;;;;;;;;;;;;;19.28;63.39;101157.44;4149409;28;19929;-58
2023/08/04 07:00:33;;;;;;;;;;;;;;;19.27;63.58;101159.25;4149406;28;20303;-58
2023/08/04 07:02:35;;;;;;;;;;;;;;;19.28;63.22;101162.75;4148474;28;19965;-58
2023/08/04 07:04:37;;;;;;;;;;;;;;;19.29;63.57;101168.00;4149202;28;20430;-57
2023/08/04 07:06:38;;;;;;;;;;;;;;;19.29;63.68;101170.66;4149344;28;19933;-58
2023/08/04 07:08:40;;;;;;;;;;;;;;;19.30;63.35;101171.53;4149084;28;20350;-58
2023/08/04 07:10:42;;;;;;;;;;;;;;;19.30;63.20;101176.88;4149129;28;20024;-58
2023/08/04 07:12:43;;;;;;;;;;;;;;;19.30;63.44;101179.53;4148539;28;19995;-58
2023/08/04 07:14:45;;;;;;;;;;;;;;;19.29;63.26;101176.00;4148993;28;19984;-57
2023/08/04 07:16:47;;;;;;;;;;;;;;;19.29;63.37;101173.31;4149271;28;19973;-57
2023/08/04 07:18:48;;;;;;;;;;;;;;;19.27;63.28;101177.06;4149099;28;19968;-57
2023/08/04 07:20:50;;;;;;;;;;;;;;;19.28;63.45;101182.31;4149134;28;19926;-56
2023/08/04 07:22:52;;;;;;;;;;;;;;;19.29;63.51;101188.47;4148223;28;19972;-57
2023/08/04 07:24:54;;;;;;;;;;;;;;;19.29;63.07;101189.31;4149331;28;20280;-56
2023/08/04 07:26:56;;;;;;;;;;;;;;;19.30;63.34;101192.88;4149147;28;20351;-58
2023/08/04 07:28:58;;;;;;;;;;;;;;;19.30;63.27;101191.03;4148364;28;19960;-57
2023/08/04 07:31:02;;;;;;;;;;;;;;;19.32;63.29;101196.31;4149085;28;19951;-58
2023/08/04 07:33:06;;;;;;;;;;;;;;;19.30;63.15;101196.38;4148342;28;19972;-58
2023/08/04 07:35:08;;;;;;;;;;;;;;;19.31;63.41;101192.75;4148865;28;19932;-58
2023/08/04 07:37:10;;;;;;;;;;;;;;;19.31;63.35;101198.09;4148745;28;19999;-58
2023/08/04 07:39:11;;;;;;;;;;;;;;;19.31;63.01;101200.75;4148844;28;19926;-58
2023/08/04 07:41:16;;;;;;;;;;;;;;;19.31;63.08;101198.09;4148767;28;19925;-58
2023/08/04 07:43:18;;;;;;;;;;;;;;;19.33;63.40;101205.13;4148000;28;19957;-57
2023/08/04 07:45:19;;;;;;;;;;;;;;;19.31;62.85;101200.75;4148738;28;19925;-58
2023/08/04 07:47:21;;;;;;;;;;;;;;;19.32;63.33;101206.97;4149035;28;19932;-58
2023/08/04 07:49:22;;;;;;;;;;;;;;;19.33;63.31;101207.81;4148917;28;19929;-58
2023/08/04 07:51:24;;;;;;;;;;;;;;;19.33;63.34;101207.81;4148264;28;20512;-58
2023/08/04 07:53:25;;;;;;;;;;;;;;;19.33;62.92;101207.81;4148199;28;19930;-58
2023/08/04 07:55:27;;;;;;;;;;;;;;;19.34;63.18;101201.53;4148717;28;19926;-57
2023/08/04 07:57:28;;;;;;;;;;;;;;;19.35;63.12;101203.25;4148593;28;19925;-57
2023/08/04 07:59:35;;;;;;;;;;;;;;;19.37;63.05;101209.31;4148474;28;19931;-57
2023/08/04 08:01:36;;;;;;;;;;;;;;;19.36;63.15;101219.13;4148441;28;19926;-57
2023/08/04 08:03:38;;;;;;;;;;;;;;;19.36;62.76;101218.28;4147965;28;19968;-57
2023/08/04 08:05:40;;;;;;;;;;;;;;;19.37;62.91;101219.97;4148214;28;20003;-57
2023/08/04 08:07:46;;;;;;;;;;;;;;;19.38;63.00;101216.38;4148553;28;19953;-58
2023/08/04 08:09:48;;;;;;;;;;;;;;;19.38;62.67;101217.22;4148409;28;20040;-57
2023/08/04 08:11:50;;;;;;;;;;;;;;;19.39;62.68;101223.41;4147922;28;19929;-57
2023/08/04 08:13:51;;;;;;;;;;;;;;;19.40;62.88;101230.47;4147728;28;20019;-57
2023/08/04 08:15:53;;;;;;;;;;;;;;;19.41;63.03;101233.03;4148331;28;20318;-57
2023/08/04 08:17:54;;;;;;;;;;;;;;;19.41;62.51;101229.50;4148408;28;20000;-57
2023/08/04 08:19:56;;;;;;;;;;;;;;;19.41;62.66;101232.19;4148231;28;19957;-57
2023/08/04 08:21:58;;;;;;;;;;;;;;;19.41;62.83;101235.69;4147821;28;20028;-56
2023/08/04 08:23:59;;;;;;;;;;;;;;;19.43;62.79;101235.56;4148199;28;20382;-58
2023/08/04 08:26:01;;;;;;;;;;;;;;;19.42;62.40;101242.75;4148566;28;19926;-57
2023/08/04 08:28:03;;;;;;;;;;;;;;;19.44;62.83;101240.84;4148259;28;20280;-57
2023/08/04 08:30:05;;;;;;;;;;;;;;;19.45;62.60;101239.88;4148117;28;19960;-58
2023/08/04 08:32:07;;;;;;;;;;;;;;;19.46;62.46;101241.56;4147306;28;19971;-57
2023/08/04 08:34:09;;;;;;;;;;;;;;;19.46;62.36;101246.06;4147824;28;19932;-57
2023/08/04 08:36:11;;;;;;;;;;;;;;;19.47;62.14;101247.78;4148104;28;19933;-57
2023/08/04 08:38:12;;;;;;;;;;;;;;;19.48;62.29;101249.50;4148236;28;20004;-56
2023/08/04 08:40:14;;;;;;;;;;;;;;;19.48;62.34;101244.16;4148119;28;20008;-58
2023/08/04 08:42:15;;;;;;;;;;;;;;;19.50;62.35;101258.25;4146201;28;19940;-57
2023/08/04 08:44:18;;;;;;;;;;;;;;;19.50;62.08;101252.06;4148000;28;20012;-57
2023/08/04 08:46:20;;;;;;;;;;;;;;;19.50;62.15;101252.06;4148096;28;19972;-57
2023/08/04 08:48:22;;;;;;;;;;;;;;;19.52;62.14;101258.16;4148115;28;19926;-57
2023/08/04 08:50:24;;;;;;;;;;;;;;;19.52;62.00;101259.00;4147821;28;20028;-57
2023/08/04 08:52:29;;;;;;;;;;;;;;;19.55;62.20;101260.63;4147336;28;19960;-57
2023/08/04 08:54:36;;;;;;;;;;;;;;;19.56;62.27;101257.88;4147961;28;20634;-57
2023/08/04 08:56:43;;;;;;;;;;;;;;;19.58;62.58;101266.59;4148012;28;19926;-57
2023/08/04 08:58:45;;;;;;;;;;;;;;;19.59;62.40;101264.81;4148006;28;19926;-58
2023/08/04 09:00:47;;;;;;;;;;;;;;;19.62;62.34;101268.13;4147905;28;19926;-57
2023/08/04 09:02:49;;;;;;;;;;;;;;;19.65;62.59;101272.41;4147462;28;19926;-58
2023/08/04 09:04:51;;;;;;;;;;;;;;;19.69;62.04;101278.41;4147650;28;19926;-57
2023/08/04 09:06:55;;;;;;;;;;;;;;;19.69;62.13;101273.91;4148072;28;20338;-59
2023/08/04 09:09:00;;;;;;;;;;;;;;;19.69;62.10;101273.06;4148069;28;19937;-59
2023/08/04 09:11:02;;;;;;;;;;;;;;;19.71;62.16;101273.81;4147861;28;20390;-59
2023/08/04 09:13:09;;;;;;;;;;;;;;;19.71;62.10;101276.47;4147293;28;19957;-59
2023/08/04 09:15:12;;;;;;;;;;;;;;;19.75;62.15;101278.84;4147729;28;19999;-59
2023/08/04 09:17:33;;;;;;;;;;;;;;;19.76;62.08;101267.22;4147914;28;19929;-60
2023/08/04 09:19:37;;;;;;;;;;;;;;;19.78;61.98;101280.47;4147899;28;19948;-59
2023/08/04 09:21:38;;;;;;;;;;;;;;;19.79;61.96;101275.03;4147947;28;20336;-59
2023/08/04 09:23:49;;;;;;;;;;;;;;;19.84;61.95;101273.91;4147159;28;19925;-59
2023/08/04 09:25:54;;;;;;;;;;;;;;;19.82;61.78;101278.44;4149412;28;20387;-59
2023/08/04 09:27:56;;;;;;;;;;;;;;;19.82;62.20;101281.13;4150940;28;19976;-59
2023/08/04 09:29:59;;;;;;;;;;;;;;;19.80;61.79;101279.41;4150914;28;19925;-59
2023/08/04 09:32:11;;;;;;;;;;;;;;;19.79;62.30;101283.03;4150186;28;20012;-59
2023/08/04 09:34:12;;;;;;;;;;;;;;;19.79;61.92;101280.38;4150778;28;20416;-60
2023/08/04 09:36:17;;;;;;;;;;;;;;;19.78;61.98;101272.44;4150480;28;19948;-59
2023/08/04 09:38:20;;;;;;;;;;;;;;;19.79;62.19;101268.81;4150816;28;19933;-59
2023/08/04 09:40:22;;;;;;;;;;;;;;;19.79;61.99;101268.81;4150841;28;19925;-59
2023/08/04 09:42:24;;;;;;;;;;;;;;;19.78;61.90;101269.78;4148984;28;20004;-60
2023/08/04 09:44:33;;;;;;;;;;;;;;;19.80;61.95;101267.88;4150693;28;19925;-59
2023/08/04 09:46:54;;;;;;;;;;;;;;;19.84;61.85;101264.06;4150462;28;19948;-59
2023/08/04 09:48:59;;;;;;;;;;;;;;;19.87;61.89;101268.38;4150639;28;20399;-58
2023/08/04 09:51:14;;;;;;;;;;;;;;;19.86;61.65;101259.50;4150718;28;20467;-57
2023/08/04 09:53:16;;;;;;;;;;;;;;;19.90;61.78;101261.03;4149767;28;20303;-58
2023/08/04 09:55:17;;;;;;;;;;;;;;;19.92;61.47;101263.56;4150579;28;20409;-57
2023/08/04 09:57:21;;;;;;;;;;;;;;;19.94;61.70;101253.66;4150513;28;20398;-57
2023/08/04 09:59:23;;;;;;;;;;;;;;;19.98;61.35;101256.94;4150551;28;19969;-58
2023/08/04 10:01:25;;;;;;;;;;;;;;;19.99;61.73;101246.19;4150121;28;19925;-58
2023/08/04 10:03:27;;;;;;;;;;;;;;;20.01;61.65;101257.59;4149493;28;19930;-57
2023/08/04 10:05:29;;;;;;;;;;;;;;;20.04;61.37;101259.25;4150356;28;19925;-56
2023/08/04 10:07:33;;;;;;;;;;;;;;;20.02;61.67;101255.81;4150512;28;20035;-57
2023/08/04 10:09:35;;;;;;;;;;;;;;;20.03;61.36;101255.69;4150324;28;20383;-56
2023/08/04 10:11:36;;;;;;;;;;;;;;;20.05;61.48;101253.78;4150560;28;20438;-57
2023/08/04 10:13:42;;;;;;;;;;;;;;;20.03;61.33;101257.53;4149399;28;19969;-57
2023/08/04 10:15:44;;;;;;;;;;;;;;;20.01;61.40;101262.09;4149749;28;19925;-56
2023/08/04 10:17:46;;;;;;;;;;;;;;;19.99;61.27;101264.00;4150121;28;19925;-56
2023/08/04 10:19:48;;;;;;;;;;;;;;;19.99;61.48;101261.34;4150064;28;20020;-57
2023/08/04 10:21:50;;;;;;;;;;;;;;;19.97;61.13;101257.94;4150015;28;20421;-57
2023/08/04 10:23:55;;;;;;;;;;;;;;;19.95;61.60;101264.22;4149242;28;20024;-56
2023/08/04 10:25:59;;;;;;;;;;;;;;;19.95;61.75;101258.91;4150228;28;20019;-57
2023/08/04 10:28:01;;;;;;;;;;;;;;;19.94;61.70;101262.50;4150046;28;19925;-58